createdAt,value
2018-03-16T00:01:06.885Z,99617
2018-03-16T00:03:35.103Z,99618
2018-03-16T00:06:04.101Z,99620
2018-03-16T00:08:33.114Z,99622
2018-03-16T00:11:01.347Z,99629
2018-03-16T00:13:29.621Z,99619
2018-03-16T00:15:57.832Z,99614
2018-03-16T00:18:26.845Z,99612
2018-03-16T00:20:55.070Z,99619
2018-03-16T00:23:23.358Z,99615
2018-03-16T00:25:52.332Z,99611
2018-03-16T00:28:20.540Z,99606
2018-03-16T00:30:49.554Z,99605
2018-03-16T00:33:17.804Z,99616
2018-03-16T00:35:46.783Z,99615
2018-03-16T00:38:28.550Z,99607
2018-03-16T00:40:57.088Z,99598
2018-03-16T00:43:25.389Z,99588
2018-03-16T00:45:53.619Z,99587
2018-03-16T00:48:22.637Z,99587
2018-03-16T00:50:50.850Z,99590
2018-03-16T00:56:19.934Z,99581
2018-03-16T00:58:48.214Z,99591
2018-03-16T01:01:16.430Z,99589
2018-03-16T01:03:44.650Z,99587
2018-03-16T01:09:12.762Z,99584
2018-03-16T01:11:40.974Z,99578
2018-03-16T01:14:10.015Z,99579
2018-03-16T01:16:38.228Z,99584
2018-03-16T01:22:06.455Z,99580
2018-03-16T01:24:35.420Z,99592
2018-03-16T01:27:03.838Z,99581
2018-03-16T01:29:32.059Z,99581
2018-03-16T01:32:00.410Z,99579
2018-03-16T01:34:28.689Z,99580
2018-03-16T01:36:56.897Z,99574
2018-03-16T01:39:25.171Z,99566
2018-03-16T01:41:53.380Z,99567
2018-03-16T01:44:21.757Z,99555
2018-03-16T01:46:49.965Z,99560
2018-03-16T01:49:30.773Z,99555
2018-03-16T01:51:58.995Z,99564
2018-03-16T01:54:27.210Z,99551
2018-03-16T01:56:55.542Z,99555
2018-03-16T01:59:23.758Z,99550
2018-03-16T02:01:51.969Z,99550
2018-03-16T02:04:21.014Z,99554
2018-03-16T02:06:49.238Z,99546
2018-03-16T02:09:17.540Z,99545
2018-03-16T02:11:45.749Z,99541
2018-03-16T02:14:14.693Z,99556
2018-03-16T02:19:43.146Z,99539
2018-03-16T02:22:11.357Z,99534
2018-03-16T02:24:39.656Z,99546
2018-03-16T02:27:07.864Z,99541
2018-03-16T02:29:36.067Z,99537
2018-03-16T02:35:05.352Z,99531
2018-03-16T02:37:33.631Z,99527
2018-03-16T02:40:01.891Z,99518
2018-03-16T02:42:30.221Z,99521
2018-03-16T02:47:59.664Z,99524
2018-03-16T02:50:27.881Z,99533
2018-03-16T02:52:56.083Z,99527
2018-03-16T02:55:25.150Z,99530
2018-03-16T03:00:53.734Z,99531
2018-03-16T03:03:21.973Z,99520
2018-03-16T03:05:50.204Z,99517
2018-03-16T03:08:18.472Z,99512
2018-03-16T03:10:46.690Z,99513
2018-03-16T03:19:16.877Z,99536
2018-03-16T03:21:45.237Z,99528
2018-03-16T03:24:28.045Z,99520
2018-03-16T03:26:56.309Z,99530
2018-03-16T03:29:25.436Z,99520
2018-03-16T03:31:53.657Z,99515
2018-03-16T03:34:21.865Z,99515
2018-03-16T03:36:50.119Z,99502
2018-03-16T03:39:19.097Z,99489
2018-03-16T03:41:47.301Z,99495
2018-03-16T03:44:15.597Z,99492
2018-03-16T03:46:43.815Z,99486
2018-03-16T03:49:12.023Z,99490
2018-03-16T03:51:40.300Z,99481
2018-03-16T03:57:09.486Z,99478
2018-03-16T03:59:37.716Z,99485
2018-03-16T04:02:05.947Z,99477
2018-03-16T04:04:34.951Z,99486
2018-03-16T04:07:03.918Z,99486
2018-03-16T04:09:32.931Z,99483
2018-03-16T04:12:01.964Z,99484
2018-03-16T04:14:30.187Z,99483
2018-03-16T04:16:59.211Z,99480
2018-03-16T04:19:27.416Z,99482
2018-03-16T04:21:55.627Z,99470
2018-03-16T04:24:24.652Z,99476
2018-03-16T04:26:52.874Z,99467
2018-03-16T04:29:21.096Z,99471
2018-03-16T04:31:49.355Z,99483
2018-03-16T04:34:18.456Z,99477
2018-03-16T04:36:46.664Z,99480
2018-03-16T04:39:14.881Z,99485
2018-03-16T04:41:43.157Z,99496
2018-03-16T04:44:11.395Z,99505
2018-03-16T04:46:39.622Z,99501
2018-03-16T04:52:08.692Z,99495
2018-03-16T04:54:36.938Z,99503
2018-03-16T04:57:05.149Z,99493
2018-03-16T04:59:33.376Z,99499
2018-03-16T05:02:01.623Z,99496
2018-03-16T05:04:30.654Z,99491
2018-03-16T05:06:58.872Z,99483
2018-03-16T05:09:27.091Z,99488
2018-03-16T05:11:55.327Z,99485
2018-03-16T05:14:23.569Z,99487
2018-03-16T05:19:52.632Z,99486
2018-03-16T05:22:21.601Z,99472
2018-03-16T05:24:49.998Z,99484
2018-03-16T05:27:19.041Z,99483
2018-03-16T05:29:47.254Z,99484
2018-03-16T05:35:16.343Z,99482
2018-03-16T05:37:44.560Z,99474
2018-03-16T05:40:13.538Z,99484
2018-03-16T05:42:41.819Z,99484
2018-03-16T05:45:10.792Z,99471
2018-03-16T05:47:39.010Z,99469
2018-03-16T05:50:07.253Z,99474
2018-03-16T05:52:35.510Z,99476
2018-03-16T05:55:03.720Z,99464
2018-03-16T05:57:32.737Z,99466
2018-03-16T06:06:02.374Z,99461
2018-03-16T06:08:30.601Z,99460
2018-03-16T06:10:58.822Z,99470
2018-03-16T06:13:30.207Z,99454
2018-03-16T06:28:29.135Z,99448
2018-03-16T06:31:28.215Z,99453
2018-03-16T07:04:29.510Z,99420
2018-03-16T07:07:27.773Z,99423
2018-03-16T07:49:29.155Z,99416
2018-03-16T08:07:27.502Z,99429
2018-03-16T08:16:27.141Z,99408
2018-03-16T08:24:56.221Z,99413
2018-03-16T08:44:27.766Z,99405
2018-03-16T09:15:28.551Z,99391
2018-03-16T09:24:27.108Z,99393
2018-03-16T10:08:27.284Z,99375
2018-03-16T10:17:06.417Z,99377
2018-03-16T11:10:53.492Z,99372
2018-03-16T11:37:30.783Z,99345
2018-03-16T12:24:27.922Z,99343
2018-03-16T12:57:05.470Z,99339
2018-03-16T13:05:33.795Z,99340
2018-03-16T13:11:15.617Z,99334
2018-03-16T13:13:56.385Z,99332
2018-03-16T14:22:03.483Z,99350
2018-03-16T14:39:29.614Z,99373
2018-03-16T14:42:20.001Z,99381
2018-03-16T15:54:11.397Z,99428
2018-03-16T16:53:53.155Z,99523
2018-03-16T17:33:06.006Z,99598
2018-03-16T17:50:38.236Z,99609
2018-03-16T18:09:28.092Z,99640
2018-03-16T18:21:28.108Z,99649
2018-03-16T18:33:28.446Z,99665
2018-03-16T18:41:57.879Z,99668
2018-03-16T18:59:29.908Z,99682
2018-03-16T19:02:28.262Z,99688
2018-03-16T19:44:02.812Z,99709
2018-03-16T19:52:32.176Z,99717
2018-03-16T20:13:04.323Z,99732
2018-03-16T20:18:32.720Z,99738
2018-03-16T20:21:00.978Z,99731
2018-03-16T20:23:29.205Z,99744
2018-03-16T20:25:57.468Z,99748
2018-03-16T20:28:25.716Z,99736
2018-03-16T20:36:55.602Z,99754
2018-03-16T20:39:54.324Z,99755
2018-03-16T20:42:22.609Z,99750
2018-03-16T20:44:50.834Z,99754
2018-03-16T20:47:19.152Z,99765
2018-03-16T20:49:47.458Z,99768
2018-03-16T20:52:15.694Z,99777
2018-03-16T20:54:44.726Z,99784
2018-03-16T20:57:29.693Z,99775
2018-03-16T20:59:58.041Z,99784
2018-03-16T21:02:26.300Z,99789
2018-03-16T21:04:55.303Z,99788
2018-03-16T21:07:29.971Z,99805
2018-03-16T21:09:58.217Z,99796
2018-03-16T21:24:28.552Z,99822
2018-03-16T21:26:56.793Z,99818
2018-03-16T21:29:25.111Z,99823
2018-03-16T21:31:53.352Z,99819
2018-03-16T21:34:21.601Z,99834
2018-03-16T21:42:52.119Z,99853
2018-03-16T21:45:20.379Z,99864
2018-03-16T21:47:48.642Z,99861
2018-03-16T21:53:16.696Z,99856
2018-03-16T22:01:47.383Z,99852
2018-03-16T22:07:16.897Z,99852
2018-03-16T22:09:45.906Z,99863
2018-03-16T22:12:14.149Z,99863
2018-03-16T22:14:43.195Z,99866
2018-03-16T22:17:11.433Z,99869
2018-03-16T22:22:40.548Z,99866
2018-03-16T22:25:08.784Z,99874
2018-03-16T22:27:37.004Z,99876
2018-03-16T22:30:05.289Z,99873
2018-03-16T22:44:36.668Z,99897
2018-03-16T22:56:06.550Z,99907
2018-03-16T22:58:35.581Z,99898
2018-03-16T23:07:03.845Z,99906
2018-03-16T23:09:32.088Z,99908
2018-03-16T23:12:00.306Z,99913
2018-03-16T23:14:29.456Z,99917
2018-03-16T23:16:57.690Z,99922
2018-03-16T23:22:25.943Z,99924
2018-03-16T23:24:54.177Z,99930
2018-03-16T23:27:22.400Z,99927
2018-03-16T23:29:50.667Z,99939
2018-03-16T23:38:18.860Z,99931
2018-03-16T23:40:47.101Z,99934
2018-03-16T23:46:29.558Z,99958
2018-03-16T23:48:57.787Z,99957
2018-03-16T23:51:26.773Z,99952
2018-03-16T23:53:55.797Z,99957
